createdAt,value
2016-04-14T00:00:32.733Z,0
2016-04-14T00:01:32.767Z,0
2016-04-14T00:02:32.816Z,0
2016-04-14T00:03:32.835Z,0
2016-04-14T00:04:32.868Z,0
2016-04-14T00:05:32.918Z,0
2016-04-14T00:06:32.952Z,0
2016-04-14T00:07:32.986Z,0
2016-04-14T00:08:32.566Z,0
2016-04-14T00:09:33.036Z,0
2016-04-14T00:10:33.102Z,0
2016-04-14T00:11:33.135Z,0
2016-04-14T00:12:33.154Z,0
2016-04-14T00:13:33.188Z,0
2016-04-14T00:14:33.221Z,0
2016-04-14T00:15:33.271Z,0
2016-04-14T00:16:33.290Z,0
2016-04-14T00:17:33.338Z,0
2016-04-14T00:18:33.373Z,0
2016-04-14T00:19:33.282Z,0
2016-04-14T00:20:33.441Z,0
2016-04-14T00:21:33.474Z,0
2016-04-14T00:22:33.493Z,0
2016-04-14T00:23:33.543Z,0
2016-04-14T00:24:33.576Z,0
2016-04-14T00:25:33.767Z,0
2016-04-14T00:26:33.644Z,0
2016-04-14T00:27:33.523Z,0
2016-04-14T00:28:33.884Z,0
2016-04-14T00:29:33.761Z,0
2016-04-14T00:30:33.781Z,0
2016-04-14T00:31:33.830Z,0
2016-04-14T00:32:33.863Z,0
2016-04-14T00:33:33.914Z,0
2016-04-14T00:34:33.931Z,0
2016-04-14T00:35:33.966Z,0
2016-04-14T00:36:34.100Z,0
2016-04-14T00:37:33.884Z,0
2016-04-14T00:38:34.074Z,0
2016-04-14T00:39:34.093Z,0
2016-04-14T00:40:34.157Z,0
2016-04-14T00:41:34.176Z,0
2016-04-14T00:42:34.210Z,0
2016-04-14T00:43:34.243Z,0
2016-04-14T00:44:34.278Z,0
2016-04-14T00:45:34.312Z,0
2016-04-14T00:46:34.346Z,0
2016-04-14T00:47:34.396Z,0
2016-04-14T00:48:34.414Z,0
2016-04-14T00:49:34.463Z,0
2016-04-14T00:50:34.498Z,0
2016-04-14T00:51:34.531Z,0
2016-04-14T00:52:34.549Z,0
2016-04-14T00:53:34.599Z,0
2016-04-14T00:54:34.648Z,0
2016-04-14T00:55:34.667Z,0
2016-04-14T00:56:34.700Z,0
2016-04-14T00:57:34.734Z,0
2016-04-14T00:58:34.769Z,0
2016-04-14T00:59:34.802Z,0
2016-04-14T01:00:34.680Z,0
2016-04-14T01:01:34.886Z,0
2016-04-14T01:02:34.904Z,0
2016-04-14T01:03:34.938Z,0
2016-04-14T01:04:35.097Z,0
2016-04-14T01:05:35.021Z,0
2016-04-14T01:06:35.041Z,0
2016-04-14T01:07:35.074Z,0
2016-04-14T01:08:35.124Z,0
2016-04-14T01:09:35.157Z,0
2016-04-14T01:10:35.191Z,0
2016-04-14T01:11:35.226Z,0
2016-04-14T01:12:35.259Z,0
2016-04-14T01:13:35.293Z,0
2016-04-14T01:14:35.327Z,0
2016-04-14T01:15:35.376Z,0
2016-04-14T01:16:35.379Z,0
2016-04-14T01:17:35.445Z,0
2016-04-14T01:18:35.410Z,0
2016-04-14T01:19:35.491Z,0
2016-04-14T01:20:35.541Z,0
2016-04-14T01:21:35.575Z,0
2016-04-14T01:22:35.592Z,0
2016-04-14T01:23:35.658Z,0
2016-04-14T01:24:35.677Z,0
2016-04-14T01:25:35.710Z,0
2016-04-14T01:26:35.744Z,0
2016-04-14T01:27:35.638Z,0
2016-04-14T01:28:35.749Z,0
2016-04-14T01:29:35.846Z,0
2016-04-14T01:30:35.911Z,0
2016-04-14T01:31:35.929Z,0
2016-04-14T01:32:36.574Z,0
2016-04-14T01:33:35.982Z,0
2016-04-14T01:34:36.016Z,0
2016-04-14T01:35:36.065Z,0
2016-04-14T01:36:35.943Z,0
2016-04-14T01:37:36.133Z,0
2016-04-14T01:38:36.167Z,0
2016-04-14T01:39:36.185Z,0
2016-04-14T01:40:36.298Z,0
2016-04-14T01:41:36.253Z,0
2016-04-14T01:42:36.318Z,0
2016-04-14T01:43:36.337Z,0
2016-04-14T01:44:36.371Z,0
2016-04-14T01:45:36.404Z,0
2016-04-14T01:46:36.454Z,0
2016-04-14T01:47:36.472Z,0
2016-04-14T01:48:36.506Z,0
2016-04-14T01:49:36.556Z,0
2016-04-14T01:50:36.575Z,0
2016-04-14T01:51:36.608Z,0
2016-04-14T01:52:36.642Z,0
2016-04-14T01:53:36.676Z,0
2016-04-14T01:54:36.710Z,0
2016-04-14T01:55:37.197Z,0
2016-04-14T01:56:36.777Z,0
2016-04-14T01:57:36.812Z,0
2016-04-14T01:58:36.846Z,0
2016-04-14T01:59:36.896Z,0
2016-04-14T02:00:36.914Z,0
2016-04-14T02:01:36.947Z,0
2016-04-14T02:02:36.997Z,0
2016-04-14T02:03:37.032Z,0
2016-04-14T02:04:37.065Z,0
2016-04-14T02:05:37.115Z,0
2016-04-14T02:06:37.132Z,0
2016-04-14T02:07:37.167Z,0
2016-04-14T02:08:37.248Z,0
2016-04-14T02:09:37.219Z,0
2016-04-14T02:10:37.565Z,0
2016-04-14T02:11:37.318Z,0
2016-04-14T02:12:37.336Z,0
2016-04-14T02:13:37.354Z,0
2016-04-14T02:14:37.420Z,0
2016-04-14T02:15:37.439Z,0
2016-04-14T02:16:37.473Z,0
2016-04-14T02:17:37.507Z,0
2016-04-14T02:18:37.540Z,0
2016-04-14T02:19:37.574Z,0
2016-04-14T02:20:37.609Z,0
2016-04-14T02:21:37.486Z,0
2016-04-14T02:22:37.676Z,0
2016-04-14T02:23:37.711Z,0
2016-04-14T02:24:37.759Z,0
2016-04-14T02:25:38.325Z,0
2016-04-14T02:26:37.827Z,0
2016-04-14T02:27:37.861Z,0
2016-04-14T02:28:37.879Z,0
2016-04-14T02:29:37.930Z,0
2016-04-14T02:30:37.979Z,0
2016-04-14T02:31:37.996Z,0
2016-04-14T02:32:38.047Z,0
2016-04-14T02:33:38.174Z,0
2016-04-14T02:34:38.099Z,0
2016-04-14T02:35:38.118Z,0
2016-04-14T02:36:38.166Z,0
2016-04-14T02:37:38.185Z,0
2016-04-14T02:38:38.219Z,0
2016-04-14T02:39:38.268Z,0
2016-04-14T02:40:38.693Z,0
2016-04-14T02:41:38.337Z,0
2016-04-14T02:42:38.354Z,0
2016-04-14T02:43:38.404Z,0
2016-04-14T02:44:38.454Z,0
2016-04-14T02:45:38.472Z,0
2016-04-14T02:46:38.506Z,0
2016-04-14T02:47:38.540Z,0
2016-04-14T02:48:38.573Z,0
2016-04-14T02:49:38.655Z,0
2016-04-14T02:50:38.642Z,0
2016-04-14T02:51:38.675Z,0
2016-04-14T02:52:38.695Z,0
2016-04-14T02:53:38.728Z,0
2016-04-14T02:54:38.762Z,0
2016-04-14T02:55:38.811Z,0
2016-04-14T02:56:38.830Z,0
2016-04-14T02:57:38.864Z,0
2016-04-14T02:58:38.913Z,0
2016-04-14T02:59:38.947Z,0
2016-04-14T03:00:38.981Z,0
2016-04-14T03:01:39.000Z,0
2016-04-14T03:02:39.065Z,0
2016-04-14T03:03:39.099Z,0
2016-04-14T03:04:39.116Z,0
2016-04-14T03:05:39.167Z,0
2016-04-14T03:06:39.185Z,0
2016-04-14T03:07:39.203Z,0
2016-04-14T03:08:39.253Z,0
2016-04-14T03:09:39.287Z,0
2016-04-14T03:10:39.571Z,0
2016-04-14T03:11:39.354Z,0
2016-04-14T03:12:39.404Z,0
2016-04-14T03:13:39.422Z,0
2016-04-14T03:14:39.457Z,0
2016-04-14T03:15:39.506Z,0
2016-04-14T03:16:39.523Z,0
2016-04-14T03:17:39.559Z,0
2016-04-14T03:18:39.592Z,0
2016-04-14T03:19:39.626Z,0
2016-04-14T03:20:39.660Z,0
2016-04-14T03:21:39.709Z,0
2016-04-14T03:22:39.744Z,0
2016-04-14T03:23:39.762Z,0
2016-04-14T03:24:39.795Z,0
2016-04-14T03:25:39.892Z,0
2016-04-14T03:26:39.880Z,0
2016-04-14T03:27:39.897Z,0
2016-04-14T03:28:39.932Z,0
2016-04-14T03:29:39.981Z,0
2016-04-14T03:30:40.000Z,0
2016-04-14T03:31:40.033Z,0
2016-04-14T03:32:40.067Z,0
2016-04-14T03:33:40.102Z,0
2016-04-14T03:34:40.135Z,0
2016-04-14T03:35:40.169Z,0
2016-04-14T03:36:40.218Z,0
2016-04-14T03:37:40.237Z,0
2016-04-14T03:38:40.287Z,0
2016-04-14T03:39:40.305Z,0
2016-04-14T03:40:40.401Z,0
2016-04-14T03:41:40.388Z,0
2016-04-14T03:42:40.407Z,0
2016-04-14T03:43:40.440Z,0
2016-04-14T03:44:40.474Z,0
2016-04-14T03:45:40.509Z,0
2016-04-14T03:46:40.542Z,0
2016-04-14T03:47:40.577Z,0
2016-04-14T03:48:40.470Z,0
2016-04-14T03:49:40.487Z,0
2016-04-14T03:50:40.679Z,0
2016-04-14T03:51:40.728Z,0
2016-04-14T03:52:40.746Z,0
2016-04-14T03:53:40.780Z,0
2016-04-14T03:54:40.814Z,0
2016-04-14T03:55:40.801Z,0
2016-04-14T03:56:40.929Z,0
2016-04-14T03:57:40.916Z,0
2016-04-14T03:58:40.949Z,0
2016-04-14T03:59:40.999Z,0
2016-04-14T04:00:41.017Z,0
2016-04-14T04:01:41.052Z,0
2016-04-14T04:02:41.085Z,0
2016-04-14T04:03:41.135Z,4
2016-04-14T04:04:41.153Z,4
2016-04-14T04:05:41.218Z,0
2016-04-14T04:06:41.221Z,4
2016-04-14T04:07:41.255Z,4
2016-04-14T04:08:41.132Z,4
2016-04-14T04:09:41.339Z,4
2016-04-14T04:10:41.466Z,4
2016-04-14T04:11:41.390Z,8
2016-04-14T04:12:41.441Z,8
2016-04-14T04:13:41.459Z,12
2016-04-14T04:14:41.493Z,12
2016-04-14T04:15:41.527Z,12
2016-04-14T04:16:41.560Z,16
2016-04-14T04:17:41.595Z,20
2016-04-14T04:18:41.645Z,20
2016-04-14T04:19:41.662Z,24
2016-04-14T04:20:41.712Z,24
2016-04-14T04:21:41.731Z,28
2016-04-14T04:22:41.796Z,32
2016-04-14T04:23:41.798Z,36
2016-04-14T04:24:41.832Z,44
2016-04-14T04:25:41.881Z,44
2016-04-14T04:26:41.900Z,52
2016-04-14T04:27:41.934Z,60
2016-04-14T04:28:41.968Z,64
2016-04-14T04:29:42.002Z,68
2016-04-14T04:30:42.035Z,80
2016-04-14T04:31:42.070Z,88
2016-04-14T04:32:42.103Z,96
2016-04-14T04:33:42.138Z,104
2016-04-14T04:34:42.156Z,112
2016-04-14T04:35:42.190Z,124
2016-04-14T04:36:42.239Z,136
2016-04-14T04:37:42.274Z,144
2016-04-14T04:38:42.291Z,160
2016-04-14T04:39:42.357Z,172
2016-04-14T04:40:42.374Z,184
2016-04-14T04:41:42.409Z,196
2016-04-14T04:42:42.443Z,212
2016-04-14T04:43:42.477Z,228
2016-04-14T04:44:42.510Z,244
2016-04-14T04:45:42.545Z,260
2016-04-14T04:46:42.563Z,276
2016-04-14T04:47:42.612Z,296
2016-04-14T04:48:42.631Z,320
2016-04-14T04:49:42.665Z,340
2016-04-14T04:50:42.714Z,360
2016-04-14T04:51:42.748Z,376
2016-04-14T04:52:42.782Z,396
2016-04-14T04:53:42.801Z,424
2016-04-14T04:54:42.850Z,464
2016-04-14T04:55:42.884Z,504
2016-04-14T04:56:42.903Z,552
2016-04-14T04:57:42.967Z,604
2016-04-14T04:58:42.986Z,656
2016-04-14T04:59:43.004Z,700
2016-04-14T05:00:43.038Z,740
2016-04-14T05:01:43.104Z,776
2016-04-14T05:02:43.106Z,816
2016-04-14T05:03:43.140Z,860
2016-04-14T05:04:43.175Z,904
2016-04-14T05:05:43.224Z,952
2016-04-14T05:06:43.258Z,1004
2016-04-14T05:07:43.291Z,1060
2016-04-14T05:08:43.310Z,1120
2016-04-14T05:09:43.359Z,1172
2016-04-14T05:10:43.378Z,1232
2016-04-14T05:11:43.443Z,1284
2016-04-14T05:12:43.446Z,1340
2016-04-14T05:13:43.510Z,1380
2016-04-14T05:14:43.604Z,1416
2016-04-14T05:15:43.666Z,1448
2016-04-14T05:16:43.713Z,1480
2016-04-14T05:17:43.824Z,1512
2016-04-14T05:18:43.876Z,1556
2016-04-14T05:19:43.943Z,1608
2016-04-14T05:20:43.992Z,1672
2016-04-14T05:21:44.027Z,1736
2016-04-14T05:22:44.093Z,1812
2016-04-14T05:23:44.140Z,1876
2016-04-14T05:24:44.179Z,1928
2016-04-14T05:25:44.219Z,1992
2016-04-14T05:26:44.242Z,2072
2016-04-14T05:27:44.298Z,2140
2016-04-14T05:28:44.353Z,2192
2016-04-14T05:29:44.374Z,2232
2016-04-14T05:30:44.393Z,2292
2016-04-14T05:31:44.446Z,2344
2016-04-14T05:32:44.482Z,2416
2016-04-14T05:33:44.361Z,2492
2016-04-14T05:34:44.568Z,2564
2016-04-14T05:35:44.587Z,2620
2016-04-14T05:36:44.622Z,2668
2016-04-14T05:37:44.672Z,2708
2016-04-14T05:38:44.691Z,2772
2016-04-14T05:39:44.725Z,2860
2016-04-14T05:40:44.775Z,2968
2016-04-14T05:41:44.793Z,3080
2016-04-14T05:42:44.827Z,3260
2016-04-14T05:43:44.860Z,3404
2016-04-14T05:44:44.894Z,3500
2016-04-14T05:45:44.929Z,3616
2016-04-14T05:46:44.963Z,3596
2016-04-14T05:47:45.013Z,3604
2016-04-14T05:48:45.030Z,3656
2016-04-14T05:49:45.080Z,3668
2016-04-14T05:50:45.115Z,3676
2016-04-14T05:51:45.148Z,3740
2016-04-14T05:52:45.182Z,3768
2016-04-14T05:53:45.216Z,3748
2016-04-14T05:54:45.234Z,3748
2016-04-14T05:55:45.284Z,3872
2016-04-14T05:56:45.317Z,4004
2016-04-14T05:57:45.351Z,4148
2016-04-14T05:58:45.386Z,4376
2016-04-14T05:59:45.435Z,4408
2016-04-14T06:00:45.454Z,4456
2016-04-14T06:01:45.487Z,4588
2016-04-14T06:02:45.522Z,4808
2016-04-14T06:03:45.556Z,4848
2016-04-14T06:04:45.589Z,4572
2016-04-14T06:05:45.623Z,4436
2016-04-14T06:06:45.672Z,4716
2016-04-14T06:07:45.706Z,5312
2016-04-14T06:08:45.740Z,5480
2016-04-14T06:09:45.774Z,5704
2016-04-14T06:10:45.824Z,6308
2016-04-14T06:11:45.841Z,7160
2016-04-14T06:12:45.891Z,7800
2016-04-14T06:13:45.926Z,8452
2016-04-14T06:14:45.959Z,9092
2016-04-14T06:15:45.837Z,9836
2016-04-14T06:16:46.027Z,10880
2016-04-14T06:17:46.062Z,11048
2016-04-14T06:18:46.095Z,11160
2016-04-14T06:19:46.130Z,11840
2016-04-14T06:20:46.163Z,12144
2016-04-14T06:21:46.198Z,13516
2016-04-14T06:22:46.231Z,13792
2016-04-14T06:23:46.281Z,13716
2016-04-14T06:24:46.315Z,13544
2016-04-14T06:25:46.349Z,14188
2016-04-14T06:26:46.383Z,14420
2016-04-14T06:27:46.417Z,13656
2016-04-14T06:28:46.451Z,14544
2016-04-14T06:29:46.501Z,14456
2016-04-14T06:30:46.534Z,14660
2016-04-14T06:31:46.568Z,14732
2016-04-14T06:32:46.602Z,13844
2016-04-14T06:33:46.636Z,16064
2016-04-14T06:34:46.544Z,15584
2016-04-14T06:35:46.719Z,15328
2016-04-14T06:36:46.784Z,17184
2016-04-14T06:37:46.786Z,17248
2016-04-14T06:38:46.821Z,17568
2016-04-14T06:39:46.824Z,16352
2016-04-14T06:40:46.920Z,12964
2016-04-14T06:41:46.939Z,11844
2016-04-14T06:42:46.988Z,10600
2016-04-14T06:43:47.007Z,8872
2016-04-14T06:44:47.055Z,9916
2016-04-14T06:45:47.699Z,10336
2016-04-14T06:46:47.155Z,10944
2016-04-14T06:47:47.174Z,9896
2016-04-14T06:48:47.223Z,8204
2016-04-14T06:49:47.241Z,7096
2016-04-14T06:50:47.275Z,7412
2016-04-14T06:51:47.340Z,6920
2016-04-14T06:52:47.218Z,6084
2016-04-14T06:53:47.393Z,6120
2016-04-14T06:54:47.443Z,5704
2016-04-14T06:55:47.476Z,5764
2016-04-14T06:56:47.401Z,6076
2016-04-14T06:57:47.560Z,6620
2016-04-14T06:58:47.594Z,6324
2016-04-14T06:59:47.629Z,6144
2016-04-14T07:00:47.678Z,6632
2016-04-14T07:01:47.727Z,7468
2016-04-14T07:02:47.746Z,7260
2016-04-14T07:03:47.639Z,6764
2016-04-14T07:04:47.830Z,6408
2016-04-14T07:05:47.926Z,6360
2016-04-14T07:06:48.018Z,6352
2016-04-14T07:07:47.958Z,6500
2016-04-14T07:08:48.001Z,7184
2016-04-14T07:09:48.020Z,7880
2016-04-14T07:10:48.058Z,6992
2016-04-14T07:11:47.891Z,6536
2016-04-14T07:12:47.660Z,7204
2016-04-14T07:13:48.153Z,8144
2016-04-14T07:14:48.063Z,7516
2016-04-14T07:15:48.253Z,7072
2016-04-14T07:16:48.281Z,6496
2016-04-14T07:17:48.739Z,6788
2016-04-14T07:18:48.351Z,6968
2016-04-14T07:19:48.244Z,6536
2016-04-14T07:20:48.435Z,7088
2016-04-14T07:21:48.484Z,6600
2016-04-14T07:22:48.502Z,7188
2016-04-14T07:23:48.551Z,7896
2016-04-14T07:24:48.585Z,8172
2016-04-14T07:25:48.635Z,8816
2016-04-14T07:26:48.653Z,9036
2016-04-14T07:27:48.687Z,11356
2016-04-14T07:28:48.736Z,10856
2016-04-14T07:29:48.755Z,8772
2016-04-14T07:30:48.804Z,8760
2016-04-14T07:31:48.839Z,8216
2016-04-14T07:32:48.872Z,8076
2016-04-14T07:33:48.922Z,8540
2016-04-14T07:34:48.956Z,8396
2016-04-14T07:35:48.989Z,8764
2016-04-14T07:36:49.024Z,8564
2016-04-14T07:37:49.058Z,8108
2016-04-14T07:38:49.108Z,8476
2016-04-14T07:39:49.142Z,8620
2016-04-14T07:40:49.176Z,8272
2016-04-14T07:41:49.256Z,10140
2016-04-14T07:42:49.244Z,10028
2016-04-14T07:43:49.293Z,8536
2016-04-14T07:44:49.327Z,9816
2016-04-14T07:45:49.377Z,8664
2016-04-14T07:46:49.410Z,9324
2016-04-14T07:47:49.288Z,10060
2016-04-14T07:48:49.477Z,7884
2016-04-14T07:49:49.512Z,7644
2016-04-14T07:50:49.562Z,8028
2016-04-14T07:51:49.579Z,8472
2016-04-14T07:52:49.630Z,11152
2016-04-14T07:53:49.679Z,16896
2016-04-14T07:54:49.698Z,15432
2016-04-14T07:55:49.747Z,11668
2016-04-14T07:56:49.843Z,11860
2016-04-14T07:57:49.815Z,11028
2016-04-14T07:58:50.473Z,9312
2016-04-14T07:59:49.898Z,9228
2016-04-14T08:00:49.791Z,9740
2016-04-14T08:01:49.966Z,9872
2016-04-14T08:02:50.015Z,9712
2016-04-14T08:03:50.034Z,9644
2016-04-14T08:04:50.084Z,10136
2016-04-14T08:05:50.133Z,11316
2016-04-14T08:06:50.183Z,12416
2016-04-14T08:07:50.217Z,15604
2016-04-14T08:08:50.091Z,21760
2016-04-14T08:09:50.275Z,33120
2016-04-14T08:10:50.309Z,34944
2016-04-14T08:11:50.203Z,39520
2016-04-14T08:12:50.392Z,39648
2016-04-14T08:13:50.426Z,40352
2016-04-14T08:14:50.461Z,37728
2016-04-14T08:15:50.525Z,38240
2016-04-14T08:16:50.528Z,42848
2016-04-14T08:17:50.578Z,43008
2016-04-14T08:18:50.612Z,23520
2016-04-14T08:19:50.645Z,7804
2016-04-14T08:20:50.695Z,7644
2016-04-14T08:21:50.729Z,7628
2016-04-14T08:22:50.778Z,7296
2016-04-14T08:23:50.813Z,7260
2016-04-14T08:24:50.862Z,7160
2016-04-14T08:25:50.911Z,7232
2016-04-14T08:26:50.960Z,7448
2016-04-14T08:27:50.995Z,7416
2016-04-14T08:28:51.029Z,7400
2016-04-14T08:29:51.063Z,7372
2016-04-14T08:30:51.144Z,7484
2016-04-14T08:31:51.146Z,7536
2016-04-14T08:32:51.196Z,7440
2016-04-14T08:33:51.230Z,7076
2016-04-14T08:34:51.279Z,6832
2016-04-14T08:35:51.329Z,6732
2016-04-14T08:36:51.370Z,6820
2016-04-14T08:37:51.420Z,6864
2016-04-14T08:38:51.454Z,6888
2016-04-14T08:39:51.489Z,6984
2016-04-14T08:40:51.538Z,7188
2016-04-14T08:41:51.790Z,13524
2016-04-14T08:42:51.622Z,39456
2016-04-14T08:43:51.656Z,56352
2016-04-14T08:44:51.689Z,55936
2016-04-14T08:45:51.739Z,54976
2016-04-14T08:46:51.788Z,56544
2016-04-14T08:47:51.822Z,58336
2016-04-14T08:48:51.856Z,55872
2016-04-14T08:49:51.921Z,56064
2016-04-14T08:50:52.393Z,53280
2016-04-14T08:51:51.988Z,52096
2016-04-14T08:52:52.023Z,53856
2016-04-14T08:53:52.072Z,51488
2016-04-14T08:54:52.107Z,46432
2016-04-14T08:55:52.157Z,50592
2016-04-14T08:56:52.252Z,53600
2016-04-14T08:57:52.224Z,57792
2016-04-14T08:58:52.289Z,53088
2016-04-14T08:59:52.323Z,53504
2016-04-14T09:00:52.373Z,55904
2016-04-14T09:01:52.407Z,61760
2016-04-14T09:02:52.457Z,72672
2016-04-14T09:03:52.475Z,72352
2016-04-14T09:04:52.524Z,67296
2016-04-14T09:05:52.574Z,57440
2016-04-14T09:06:52.608Z,52256
2016-04-14T09:07:52.673Z,56800
2016-04-14T09:08:52.723Z,57216
2016-04-14T09:09:52.756Z,56544
2016-04-14T09:10:52.790Z,44416
2016-04-14T09:11:52.933Z,17632
2016-04-14T09:12:52.905Z,6628
2016-04-14T09:13:52.939Z,6196
2016-04-14T09:14:52.972Z,5928
2016-04-14T09:15:53.023Z,5784
2016-04-14T09:16:53.056Z,5660
2016-04-14T09:17:53.122Z,5416
2016-04-14T09:18:53.156Z,5172
2016-04-14T09:19:53.205Z,4980
2016-04-14T09:20:53.239Z,4924
2016-04-14T09:21:53.304Z,5000
2016-04-14T09:22:53.338Z,4968
2016-04-14T09:23:53.231Z,5080
2016-04-14T09:24:53.405Z,5224
2016-04-14T09:25:53.440Z,5456
2016-04-14T09:26:53.396Z,5928
2016-04-14T09:27:53.538Z,6972
2016-04-14T09:28:53.589Z,7828
2016-04-14T09:29:53.638Z,8800
2016-04-14T09:30:53.657Z,9020
2016-04-14T09:31:53.721Z,8668
2016-04-14T09:32:53.756Z,8060
2016-04-14T09:33:53.805Z,7688
2016-04-14T09:34:53.839Z,7196
2016-04-14T09:35:53.873Z,6624
2016-04-14T09:36:53.923Z,5996
2016-04-14T09:37:53.973Z,5532
2016-04-14T09:38:54.007Z,5532
2016-04-14T09:39:54.056Z,5752
2016-04-14T09:40:54.090Z,5988
2016-04-14T09:41:54.170Z,6340
2016-04-14T09:42:54.158Z,6832
2016-04-14T09:43:54.238Z,6916
2016-04-14T09:44:54.241Z,7200
2016-04-14T09:45:54.275Z,7588
2016-04-14T09:46:54.339Z,8120
2016-04-14T09:47:54.358Z,8284
2016-04-14T09:48:54.502Z,8448
2016-04-14T09:49:54.473Z,8768
2016-04-14T09:50:54.475Z,8856
2016-04-14T09:51:54.369Z,8524
2016-04-14T09:52:54.575Z,7952
2016-04-14T09:53:54.624Z,7392
2016-04-14T09:54:54.643Z,6816
2016-04-14T09:55:54.676Z,6516
2016-04-14T09:56:54.823Z,6276
2016-04-14T09:57:54.760Z,5976
2016-04-14T09:58:54.810Z,5600
2016-04-14T09:59:54.846Z,5392
2016-04-14T10:00:54.896Z,5364
2016-04-14T10:01:54.930Z,5412
2016-04-14T10:02:54.964Z,5440
2016-04-14T10:03:55.013Z,5492
2016-04-14T10:04:55.063Z,5612
2016-04-14T10:05:55.097Z,5500
2016-04-14T10:06:55.132Z,5336
2016-04-14T10:07:55.181Z,5256
2016-04-14T10:08:55.199Z,5248
2016-04-14T10:09:55.249Z,5224
2016-04-14T10:10:55.282Z,5160
2016-04-14T10:11:55.348Z,5096
2016-04-14T10:12:55.381Z,5080
2016-04-14T10:13:55.400Z,5452
2016-04-14T10:14:55.449Z,5784
2016-04-14T10:15:55.483Z,6352
2016-04-14T10:16:55.533Z,6344
2016-04-14T10:17:55.567Z,6316
2016-04-14T10:18:55.617Z,5752
2016-04-14T10:19:55.650Z,5540
2016-04-14T10:20:55.684Z,5504
2016-04-14T10:21:55.718Z,5892
2016-04-14T10:22:55.768Z,5588
2016-04-14T10:23:55.802Z,5076
2016-04-14T10:24:55.851Z,4744
2016-04-14T10:25:55.885Z,4616
2016-04-14T10:26:55.965Z,4648
2016-04-14T10:27:55.968Z,4676
2016-04-14T10:28:56.018Z,4668
2016-04-14T10:29:56.037Z,4856
2016-04-14T10:30:56.086Z,4960
2016-04-14T10:31:56.135Z,5140
2016-04-14T10:32:56.170Z,5052
2016-04-14T10:33:56.219Z,5176
2016-04-14T10:34:56.268Z,5660
2016-04-14T10:35:56.272Z,5632
2016-04-14T10:36:56.321Z,5412
2016-04-14T10:37:56.355Z,5580
2016-04-14T10:38:56.405Z,5560
2016-04-14T10:39:56.454Z,5828
2016-04-14T10:40:56.488Z,6136
2016-04-14T10:41:56.522Z,6676
2016-04-14T10:42:56.572Z,6556
2016-04-14T10:43:56.605Z,6020
2016-04-14T10:44:56.640Z,5180
2016-04-14T10:45:56.673Z,4940
2016-04-14T10:46:56.723Z,4948
2016-04-14T10:47:56.757Z,5708
2016-04-14T10:48:56.791Z,6280
2016-04-14T10:49:56.841Z,6212
2016-04-14T10:50:56.874Z,5960
2016-04-14T10:51:56.924Z,5652
2016-04-14T10:52:56.957Z,5616
2016-04-14T10:53:57.007Z,5588
2016-04-14T10:54:57.041Z,5772
2016-04-14T10:55:57.075Z,6304
2016-04-14T10:56:56.969Z,6368
2016-04-14T10:57:57.158Z,6236
2016-04-14T10:58:57.193Z,5732
2016-04-14T10:59:57.242Z,5860
2016-04-14T11:00:57.276Z,5484
2016-04-14T11:01:57.326Z,6028
2016-04-14T11:02:57.360Z,6384
2016-04-14T11:03:57.394Z,6788
2016-04-14T11:04:57.444Z,6760
2016-04-14T11:05:57.493Z,6472
2016-04-14T11:06:57.512Z,6208
2016-04-14T11:08:00.826Z,6036
2016-04-14T11:08:57.595Z,6156
2016-04-14T11:09:57.645Z,6512
2016-04-14T11:10:57.678Z,6300
2016-04-14T11:11:57.712Z,6236
2016-04-14T11:12:57.745Z,6200
2016-04-14T11:13:57.796Z,6228
2016-04-14T11:14:57.814Z,6260
2016-04-14T11:15:57.895Z,5968
2016-04-14T11:16:57.928Z,5388
2016-04-14T11:17:57.962Z,5264
2016-04-14T11:18:57.747Z,4388
2016-04-14T11:19:58.030Z,4120
2016-04-14T11:20:58.064Z,3892
2016-04-14T11:21:58.113Z,3636
2016-04-14T11:22:58.147Z,3976
2016-04-14T11:23:58.197Z,3420
2016-04-14T11:24:58.216Z,3308
2016-04-14T11:25:58.281Z,3932
2016-04-14T11:26:58.330Z,4196
2016-04-14T11:27:58.364Z,4412
2016-04-14T11:28:58.398Z,4672
2016-04-14T11:29:58.448Z,4780
2016-04-14T11:30:58.466Z,4908
2016-04-14T11:31:58.516Z,5168
2016-04-14T11:32:58.550Z,5328
2016-04-14T11:33:58.599Z,5132
2016-04-14T11:34:58.632Z,4936
2016-04-14T11:35:58.682Z,5040
2016-04-14T11:36:58.716Z,4752
2016-04-14T11:37:58.750Z,4424
2016-04-14T11:38:58.799Z,4156
2016-04-14T11:39:58.833Z,3904
2016-04-14T11:40:59.445Z,3708
2016-04-14T11:41:58.917Z,3856
2016-04-14T11:42:58.998Z,4020
2016-04-14T11:43:59.016Z,4024
2016-04-14T11:44:59.066Z,3856
2016-04-14T11:45:59.068Z,3748
2016-04-14T11:46:59.118Z,3496
2016-04-14T11:47:59.152Z,3636
2016-04-14T11:48:59.201Z,3984
2016-04-14T11:49:59.380Z,4248
2016-04-14T11:50:59.274Z,4472
2016-04-14T11:51:59.324Z,4808
2016-04-14T11:52:59.373Z,4652
2016-04-14T11:53:59.407Z,4220
2016-04-14T11:54:59.441Z,3780
2016-04-14T11:55:59.475Z,3580
2016-04-14T11:56:59.524Z,3484
2016-04-14T11:57:59.558Z,3472
2016-04-14T11:58:59.592Z,3784
2016-04-14T11:59:59.642Z,3752
2016-04-14T12:00:59.692Z,3788
2016-04-14T12:01:59.742Z,3328
2016-04-14T12:02:59.775Z,3260
2016-04-14T12:03:59.809Z,3284
2016-04-14T12:04:59.858Z,3364
2016-04-14T12:05:59.892Z,3892
2016-04-14T12:06:59.926Z,3872
2016-04-14T12:07:59.975Z,3700
2016-04-14T12:09:00.025Z,3500
2016-04-14T12:10:00.027Z,3556
2016-04-14T12:11:00.250Z,3488
2016-04-14T12:12:00.111Z,3160
2016-04-14T12:13:00.177Z,3216
2016-04-14T12:14:00.194Z,3676
2016-04-14T12:15:00.229Z,3912
2016-04-14T12:16:00.263Z,3996
2016-04-14T12:17:00.313Z,3852
2016-04-14T12:18:00.347Z,3864
2016-04-14T12:19:00.396Z,3788
2016-04-14T12:20:00.446Z,3856
2016-04-14T12:21:00.463Z,3412
2016-04-14T12:22:00.513Z,3432
2016-04-14T12:23:00.548Z,3408
2016-04-14T12:24:00.596Z,3380
2016-04-14T12:25:00.631Z,3516
2016-04-14T12:26:00.665Z,3652
2016-04-14T12:27:00.714Z,3596
2016-04-14T12:28:00.749Z,3748
2016-04-14T12:29:00.782Z,4040
2016-04-14T12:30:00.848Z,3572
2016-04-14T12:31:00.881Z,3564
2016-04-14T12:32:00.947Z,3692
2016-04-14T12:33:00.965Z,3920
2016-04-14T12:34:00.983Z,4084
2016-04-14T12:35:01.048Z,4356
2016-04-14T12:36:01.097Z,4624
2016-04-14T12:37:01.131Z,4700
2016-04-14T12:38:01.150Z,4764
2016-04-14T12:39:01.184Z,4712
2016-04-14T12:40:01.219Z,4548
2016-04-14T12:41:01.283Z,4420
2016-04-14T12:42:01.302Z,4424
2016-04-14T12:43:01.351Z,4528
2016-04-14T12:44:01.385Z,4396
2016-04-14T12:45:01.435Z,4184
2016-04-14T12:46:01.485Z,4076
2016-04-14T12:47:01.534Z,3972
2016-04-14T12:48:01.568Z,3900
2016-04-14T12:49:01.618Z,3844
2016-04-14T12:50:01.635Z,3760
2016-04-14T12:51:01.669Z,3716
2016-04-14T12:52:01.718Z,3676
2016-04-14T12:53:01.753Z,3620
2016-04-14T12:54:01.818Z,3416
2016-04-14T12:55:01.868Z,3472
2016-04-14T12:56:01.887Z,3400
2016-04-14T12:57:01.921Z,3324
2016-04-14T12:58:01.970Z,3096
2016-04-14T12:59:02.004Z,3184
2016-04-14T13:00:02.037Z,3232
2016-04-14T13:01:02.071Z,3404
2016-04-14T13:02:02.120Z,3496
2016-04-14T13:03:02.170Z,3504
2016-04-14T13:04:02.204Z,3508
2016-04-14T13:05:02.238Z,3640
2016-04-14T13:06:02.289Z,3720
2016-04-14T13:07:02.322Z,3760
2016-04-14T13:08:02.356Z,3792
2016-04-14T13:09:02.500Z,3888
2016-04-14T13:10:02.458Z,3748
2016-04-14T13:11:02.507Z,4000
2016-04-14T13:12:02.412Z,4076
2016-04-14T13:13:02.570Z,4132
2016-04-14T13:14:02.604Z,4236
2016-04-14T13:15:02.654Z,4360
2016-04-14T13:16:02.688Z,4480
2016-04-14T13:17:02.737Z,4604
2016-04-14T13:18:02.771Z,4400
2016-04-14T13:19:02.821Z,4444
2016-04-14T13:20:02.870Z,4620
2016-04-14T13:21:02.904Z,4756
2016-04-14T13:22:02.939Z,4912
2016-04-14T13:23:02.972Z,5108
2016-04-14T13:24:03.022Z,5240
2016-04-14T13:25:03.072Z,5132
2016-04-14T13:26:03.122Z,4872
2016-04-14T13:27:03.139Z,4592
2016-04-14T13:28:03.174Z,4332
2016-04-14T13:29:03.223Z,4240
2016-04-14T13:30:03.257Z,4024
2016-04-14T13:31:03.290Z,3752
2016-04-14T13:32:03.341Z,3576
2016-04-14T13:33:03.374Z,3452
2016-04-14T13:34:03.424Z,3392
2016-04-14T13:35:03.458Z,3452
2016-04-14T13:36:03.507Z,3632
2016-04-14T13:37:03.541Z,3892
2016-04-14T13:38:03.575Z,4088
2016-04-14T13:39:03.468Z,4220
2016-04-14T13:40:03.674Z,4304
2016-04-14T13:41:03.709Z,4328
2016-04-14T13:42:03.759Z,4364
2016-04-14T13:43:03.620Z,4392
2016-04-14T13:44:03.810Z,4420